Time;durP1;ratioP1;P1;durP2;ratioP2;P2;SDS_P1;SDS_P2;PMS_P1;PMS_P2;Temp;Humidity;BMP_temperature;BMP_pressure;BME280_temperature;BME280_humidity;BME280_pressure;Samples;Min_cycle;Max_cycle;Signal;HPM_P1;HPM_P2
2022/03/27 00:00:40;;;;;;;;;;;10.80;50.40;;;;;;5090116;28;20377;-73
2022/03/27 00:03:06;;;;;;;;;;;10.70;50.40;;;;;;5089393;28;19919;-73
2022/03/27 00:05:32;;;;;;;;;;;10.70;50.50;;;;;;5090032;28;19934;-73
2022/03/27 00:07:57;;;;;;;;;;;10.70;50.40;;;;;;5088569;28;20337;-73
2022/03/27 00:10:23;;;;;;;;;;;10.80;50.40;;;;;;5089894;28;19920;-73
2022/03/27 00:12:49;;;;;;;;;;;10.80;50.40;;;;;;5088749;28;19920;-73
2022/03/27 00:15:14;;;;;;;;;;;10.80;50.40;;;;;;5089828;28;19977;-73
2022/03/27 00:17:40;;;;;;;;;;;10.80;50.50;;;;;;5089665;28;20369;-72
2022/03/27 00:20:08;;;;;;;;;;;10.80;50.50;;;;;;5088991;28;20366;-73
2022/03/27 00:22:34;;;;;;;;;;;10.80;50.40;;;;;;5089616;28;19974;-73
2022/03/27 00:25:00;;;;;;;;;;;10.80;50.30;;;;;;5088251;28;20374;-73
2022/03/27 00:27:26;;;;;;;;;;;10.80;50.30;;;;;;5089738;28;19931;-73
2022/03/27 00:29:52;;;;;;;;;;;10.80;50.30;;;;;;5089640;28;19912;-72
2022/03/27 00:32:17;;;;;;;;;;;10.80;50.40;;;;;;5088192;28;19940;-73
2022/03/27 00:34:43;;;;;;;;;;;10.70;50.40;;;;;;5089472;28;20605;-73
2022/03/27 00:37:08;;;;;;;;;;;10.60;50.40;;;;;;5089411;28;20283;-72
2022/03/27 00:39:34;;;;;;;;;;;10.60;50.40;;;;;;5089644;28;19916;-72
2022/03/27 00:41:59;;;;;;;;;;;10.60;50.40;;;;;;5088983;28;19924;-72
2022/03/27 00:44:25;;;;;;;;;;;10.60;50.50;;;;;;5089233;28;20418;-73
2022/03/27 00:46:50;;;;;;;;;;;10.60;50.50;;;;;;5089097;28;20374;-73
2022/03/27 00:49:16;;;;;;;;;;;10.60;50.60;;;;;;5089098;28;20244;-73
2022/03/27 00:51:42;;;;;;;;;;;10.60;50.50;;;;;;5088946;28;19912;-73
2022/03/27 00:54:08;;;;;;;;;;;10.60;50.50;;;;;;5088581;28;19918;-72
2022/03/27 00:56:33;;;;;;;;;;;10.60;50.40;;;;;;5087904;28;20092;-73
2022/03/27 00:58:59;;;;;;;;;;;10.50;50.40;;;;;;5088451;28;19912;-73
2022/03/27 01:01:36;;;;;;;;;;;10.40;50.40;;;;;;5087374;28;19912;-73
2022/03/27 01:04:02;;;;;;;;;;;10.30;50.40;;;;;;5087299;28;19916;-73
2022/03/27 01:06:41;;;;;;;;;;;10.20;50.50;;;;;;5088067;28;19908;-73
2022/03/27 01:11:55;;;;;;;;;;;10.10;50.70;;;;;;5088174;28;19963;-73
2022/03/27 01:14:41;;;;;;;;;;;10.10;50.60;;;;;;5087896;28;20359;-73
2022/03/27 01:17:08;;;;;;;;;;;10.10;50.60;;;;;;5087537;28;19935;-74
2022/03/27 01:19:34;;;;;;;;;;;10.00;50.60;;;;;;5088146;28;19912;-73
2022/03/27 01:22:00;;;;;;;;;;;9.90;50.70;;;;;;5088383;28;19908;-73
2022/03/27 01:24:26;;;;;;;;;;;9.80;50.80;;;;;;5088196;28;19973;-73
2022/03/27 01:26:52;;;;;;;;;;;9.70;50.90;;;;;;5088297;28;19907;-73
2022/03/27 01:29:17;;;;;;;;;;;9.50;51.00;;;;;;5088296;28;19954;-73
2022/03/27 01:31:43;;;;;;;;;;;9.50;51.10;;;;;;5088511;28;19971;-73
2022/03/27 01:34:09;;;;;;;;;;;9.50;51.00;;;;;;5087209;28;19912;-73
2022/03/27 01:36:35;;;;;;;;;;;9.50;50.90;;;;;;5088301;28;20134;-73
2022/03/27 01:39:08;;;;;;;;;;;9.50;50.90;;;;;;5088212;28;20347;-73
2022/03/27 01:41:33;;;;;;;;;;;9.50;51.00;;;;;;5088151;28;19924;-73
2022/03/27 01:44:00;;;;;;;;;;;9.40;51.00;;;;;;5088286;28;19920;-73
2022/03/27 01:46:30;;;;;;;;;;;9.40;51.00;;;;;;5087109;28;19916;-73
2022/03/27 01:48:56;;;;;;;;;;;9.40;51.00;;;;;;5088246;28;19908;-73
2022/03/27 01:51:22;;;;;;;;;;;9.40;51.00;;;;;;5088199;28;20065;-74
2022/03/27 01:53:47;;;;;;;;;;;9.40;50.90;;;;;;5088134;28;20390;-73
2022/03/27 01:56:13;;;;;;;;;;;9.30;50.80;;;;;;5086901;28;20273;-74
2022/03/27 01:58:39;;;;;;;;;;;9.30;50.80;;;;;;5088152;28;19920;-73
2022/03/27 02:01:07;;;;;;;;;;;9.20;50.80;;;;;;5087973;28;19908;-73
2022/03/27 02:03:33;;;;;;;;;;;9.20;50.90;;;;;;5087843;28;19912;-73
2022/03/27 02:05:59;;;;;;;;;;;9.10;50.90;;;;;;5087942;28;19919;-73
2022/03/27 02:08:25;;;;;;;;;;;9.20;50.90;;;;;;5088060;28;20003;-73
2022/03/27 02:10:50;;;;;;;;;;;9.10;50.90;;;;;;5088031;28;20395;-73
2022/03/27 02:13:18;;;;;;;;;;;9.10;51.00;;;;;;5087990;28;20354;-73
2022/03/27 02:15:47;;;;;;;;;;;9.10;51.00;;;;;;5088023;28;19908;-73
2022/03/27 02:18:13;;;;;;;;;;;9.10;51.10;;;;;;5088107;28;20374;-73
2022/03/27 02:20:39;;;;;;;;;;;9.00;51.10;;;;;;5087805;28;19923;-73
2022/03/27 02:23:06;;;;;;;;;;;9.00;51.10;;;;;;5087926;28;19912;-73
2022/03/27 02:25:32;;;;;;;;;;;8.90;51.00;;;;;;5086572;28;20408;-73
2022/03/27 02:27:57;;;;;;;;;;;8.90;51.10;;;;;;5087887;28;19912;-73
2022/03/27 02:30:23;;;;;;;;;;;8.90;51.00;;;;;;5087877;28;20020;-73
2022/03/27 02:32:48;;;;;;;;;;;8.90;51.10;;;;;;5088024;28;20282;-74
2022/03/27 02:35:14;;;;;;;;;;;8.80;51.00;;;;;;5087848;28;19918;-73
2022/03/27 02:37:40;;;;;;;;;;;8.80;51.10;;;;;;5088100;28;19912;-73
2022/03/27 02:40:06;;;;;;;;;;;8.80;51.10;;;;;;5087804;28;19908;-73
2022/03/27 02:42:31;;;;;;;;;;;8.70;51.10;;;;;;5087763;28;20362;-73
2022/03/27 02:44:57;;;;;;;;;;;8.80;51.10;;;;;;5091600;28;19916;-73
2022/03/27 02:47:22;;;;;;;;;;;8.70;51.20;;;;;;5091652;28;19912;-73
2022/03/27 02:49:48;;;;;;;;;;;8.70;51.30;;;;;;5091572;28;19915;-73
2022/03/27 02:52:13;;;;;;;;;;;8.70;51.40;;;;;;5091683;28;19947;-72
2022/03/27 02:54:39;;;;;;;;;;;8.70;51.40;;;;;;5091475;28;19922;-73
2022/03/27 02:57:05;;;;;;;;;;;8.70;51.40;;;;;;5090397;28;19912;-73
2022/03/27 02:59:30;;;;;;;;;;;8.80;51.30;;;;;;5091519;28;19914;-73
2022/03/27 03:01:56;;;;;;;;;;;8.80;51.20;;;;;;5091513;28;19919;-72
2022/03/27 03:04:21;;;;;;;;;;;8.70;51.20;;;;;;5091329;28;19928;-72
2022/03/27 03:06:47;;;;;;;;;;;8.70;51.20;;;;;;5091487;28;19920;-73
2022/03/27 03:09:13;;;;;;;;;;;8.70;51.30;;;;;;5091532;28;20297;-72
2022/03/27 03:11:39;;;;;;;;;;;8.60;51.30;;;;;;5090063;28;19916;-73
2022/03/27 03:14:04;;;;;;;;;;;8.50;51.40;;;;;;5091218;28;19913;-72
2022/03/27 03:16:30;;;;;;;;;;;8.40;51.50;;;;;;5089811;28;19955;-73
2022/03/27 03:18:55;;;;;;;;;;;8.30;51.60;;;;;;5091018;28;20350;-73
2022/03/27 03:21:21;;;;;;;;;;;8.30;51.60;;;;;;5091032;28;19961;-73
2022/03/27 03:23:47;;;;;;;;;;;8.30;51.60;;;;;;5090837;28;19973;-73
2022/03/27 03:26:13;;;;;;;;;;;8.30;51.60;;;;;;5089522;28;20262;-72
2022/03/27 03:28:38;;;;;;;;;;;8.30;51.50;;;;;;5090887;28;19959;-73
2022/03/27 03:31:05;;;;;;;;;;;8.30;51.40;;;;;;5090749;28;19919;-72
2022/03/27 03:33:31;;;;;;;;;;;8.30;51.40;;;;;;5089485;28;20286;-73
2022/03/27 03:35:56;;;;;;;;;;;8.40;51.40;;;;;;5089454;28;19912;-73
2022/03/27 03:38:22;;;;;;;;;;;8.40;51.50;;;;;;5090612;28;20378;-73
2022/03/27 03:40:47;;;;;;;;;;;8.40;51.50;;;;;;5090969;28;19908;-73
2022/03/27 03:43:13;;;;;;;;;;;8.30;52.00;;;;;;5089100;28;19923;-72
2022/03/27 03:45:39;;;;;;;;;;;8.30;52.00;;;;;;5090718;28;19913;-73
2022/03/27 03:48:05;;;;;;;;;;;8.30;51.60;;;;;;5090633;28;20289;-73
2022/03/27 03:50:33;;;;;;;;;;;8.30;51.60;;;;;;5090399;28;19916;-73
2022/03/27 03:52:59;;;;;;;;;;;8.20;51.70;;;;;;5090568;28;19947;-72
2022/03/27 03:55:25;;;;;;;;;;;8.20;51.70;;;;;;5089180;28;19919;-73
2022/03/27 03:57:51;;;;;;;;;;;8.20;51.60;;;;;;5089092;28;19916;-72
2022/03/27 04:00:17;;;;;;;;;;;8.10;51.60;;;;;;5090870;28;20313;-73
2022/03/27 04:02:42;;;;;;;;;;;8.10;51.60;;;;;;5090170;28;20393;-73
2022/03/27 04:05:08;;;;;;;;;;;8.00;51.60;;;;;;5090147;28;19916;-73
2022/03/27 04:07:33;;;;;;;;;;;8.00;51.60;;;;;;5090253;28;19916;-73
2022/03/27 04:09:59;;;;;;;;;;;8.00;51.60;;;;;;5090142;28;19919;-72
2022/03/27 04:12:24;;;;;;;;;;;8.00;51.60;;;;;;5090209;28;19908;-72
2022/03/27 04:14:50;;;;;;;;;;;8.00;51.60;;;;;;5090038;28;20362;-73
2022/03/27 04:17:16;;;;;;;;;;;8.00;51.70;;;;;;5090534;28;20262;-72
2022/03/27 04:19:42;;;;;;;;;;;7.90;51.70;;;;;;5088700;28;19913;-73
2022/03/27 04:22:08;;;;;;;;;;;7.90;51.80;;;;;;5089874;28;19919;-73
2022/03/27 04:24:33;;;;;;;;;;;7.90;51.80;;;;;;5089942;28;19925;-73
2022/03/27 04:26:59;;;;;;;;;;;7.80;51.70;;;;;;5089856;28;20279;-72
2022/03/27 04:29:24;;;;;;;;;;;7.90;51.80;;;;;;5089640;28;19948;-73
2022/03/27 04:31:51;;;;;;;;;;;7.90;51.70;;;;;;5089668;28;19908;-73
2022/03/27 04:34:16;;;;;;;;;;;7.90;51.70;;;;;;5089592;28;19918;-73
2022/03/27 04:36:42;;;;;;;;;;;7.90;51.70;;;;;;5089621;28;19912;-72
2022/03/27 04:39:08;;;;;;;;;;;7.90;51.70;;;;;;5089531;28;20354;-73
2022/03/27 04:41:34;;;;;;;;;;;7.80;51.70;;;;;;5089517;28;20002;-73
2022/03/27 04:44:00;;;;;;;;;;;7.80;51.80;;;;;;5088101;28;19999;-73
2022/03/27 04:46:25;;;;;;;;;;;7.70;51.80;;;;;;5089428;28;20000;-72
2022/03/27 04:48:51;;;;;;;;;;;7.60;51.80;;;;;;5089369;28;19915;-73
2022/03/27 04:51:17;;;;;;;;;;;7.60;51.90;;;;;;5089331;28;20278;-72
2022/03/27 04:53:42;;;;;;;;;;;7.60;51.90;;;;;;5089335;28;19930;-72
2022/03/27 04:56:08;;;;;;;;;;;7.60;51.90;;;;;;5089274;28;19912;-73
2022/03/27 04:58:34;;;;;;;;;;;7.60;51.80;;;;;;5089219;28;19909;-73
2022/03/27 05:01:00;;;;;;;;;;;7.60;51.80;;;;;;5089043;28;19913;-72
2022/03/27 05:03:25;;;;;;;;;;;7.60;51.80;;;;;;5089094;28;19999;-72
2022/03/27 05:05:51;;;;;;;;;;;7.60;51.70;;;;;;5088780;28;20129;-72
2022/03/27 05:08:17;;;;;;;;;;;7.50;51.80;;;;;;5089010;28;19915;-72
2022/03/27 05:10:43;;;;;;;;;;;7.40;51.90;;;;;;5088924;28;20476;-72
2022/03/27 05:13:09;;;;;;;;;;;7.30;52.00;;;;;;5089419;28;19965;-73
2022/03/27 05:15:34;;;;;;;;;;;7.30;52.00;;;;;;5088762;28;19908;-72
2022/03/27 05:18:00;;;;;;;;;;;7.40;52.00;;;;;;5088871;28;20327;-73
2022/03/27 05:20:27;;;;;;;;;;;7.40;52.00;;;;;;5087421;28;20387;-73
2022/03/27 05:22:53;;;;;;;;;;;7.40;51.90;;;;;;5088832;28;20096;-72
2022/03/27 05:25:20;;;;;;;;;;;7.40;52.00;;;;;;5088667;28;20372;-73
2022/03/27 05:27:50;;;;;;;;;;;7.40;52.00;;;;;;5088866;28;20266;-73
2022/03/27 05:30:16;;;;;;;;;;;7.40;51.90;;;;;;5088661;28;20266;-72
2022/03/27 05:32:42;;;;;;;;;;;7.30;51.90;;;;;;5088658;28;20366;-72
2022/03/27 05:35:08;;;;;;;;;;;7.20;51.90;;;;;;5088697;28;19939;-73
2022/03/27 05:37:40;;;;;;;;;;;7.10;52.00;;;;;;5088714;28;19912;-73
2022/03/27 05:40:07;;;;;;;;;;;7.10;52.20;;;;;;5088365;28;20057;-72
2022/03/27 05:42:33;;;;;;;;;;;7.10;52.20;;;;;;5088204;28;20006;-72
2022/03/27 05:44:59;;;;;;;;;;;7.10;52.10;;;;;;5088451;28;20476;-73
2022/03/27 05:47:25;;;;;;;;;;;7.20;52.10;;;;;;5088477;28;20051;-73
2022/03/27 05:49:51;;;;;;;;;;;7.20;52.00;;;;;;5088329;28;19916;-72
2022/03/27 05:52:17;;;;;;;;;;;7.10;52.00;;;;;;5087128;28;19915;-72
2022/03/27 05:54:42;;;;;;;;;;;7.10;52.00;;;;;;5088517;28;20035;-72
2022/03/27 05:57:08;;;;;;;;;;;7.10;52.00;;;;;;5088439;28;19995;-72
2022/03/27 05:59:34;;;;;;;;;;;7.10;52.00;;;;;;5088212;28;19965;-73
2022/03/27 06:01:59;;;;;;;;;;;7.20;52.10;;;;;;5088178;28;19965;-73
2022/03/27 06:04:25;;;;;;;;;;;7.10;52.00;;;;;;5088123;28;19920;-73
2022/03/27 06:06:50;;;;;;;;;;;7.10;52.10;;;;;;5088164;28;20398;-73
2022/03/27 06:09:16;;;;;;;;;;;7.00;52.20;;;;;;5088197;28;20239;-73
2022/03/27 06:11:41;;;;;;;;;;;7.00;52.20;;;;;;5088082;28;20589;-72
2022/03/27 06:14:07;;;;;;;;;;;7.10;52.20;;;;;;5088124;28;19935;-73
2022/03/27 06:16:32;;;;;;;;;;;7.10;52.20;;;;;;5087975;28;19926;-73
2022/03/27 06:18:58;;;;;;;;;;;7.00;52.10;;;;;;5089633;28;19930;-72
2022/03/27 06:21:24;;;;;;;;;;;7.00;52.30;;;;;;5092279;28;19908;-72
2022/03/27 06:23:49;;;;;;;;;;;7.00;52.30;;;;;;5092515;28;20415;-73
2022/03/27 06:26:15;;;;;;;;;;;7.00;52.30;;;;;;5092224;28;20258;-72
2022/03/27 06:28:40;;;;;;;;;;;7.00;52.30;;;;;;5090718;28;20350;-72
2022/03/27 06:31:06;;;;;;;;;;;7.10;52.30;;;;;;5091988;28;19938;-73
2022/03/27 06:33:31;;;;;;;;;;;7.10;52.30;;;;;;5091988;28;19955;-73
2022/03/27 06:35:58;;;;;;;;;;;7.20;52.40;;;;;;5092021;28;19912;-73
2022/03/27 06:38:23;;;;;;;;;;;7.20;52.40;;;;;;5090741;28;19948;-72
2022/03/27 06:40:49;;;;;;;;;;;7.30;52.50;;;;;;5091956;28;19954;-73
2022/03/27 06:43:14;;;;;;;;;;;7.30;52.40;;;;;;5091568;28;19931;-73
2022/03/27 06:45:40;;;;;;;;;;;7.40;52.30;;;;;;5091797;28;20025;-73
2022/03/27 06:48:06;;;;;;;;;;;7.40;52.40;;;;;;5091755;28;20284;-72
2022/03/27 06:50:31;;;;;;;;;;;7.50;52.50;;;;;;5091555;28;19915;-72
2022/03/27 06:52:57;;;;;;;;;;;7.60;52.50;;;;;;5091465;28;20007;-72
2022/03/27 06:55:23;;;;;;;;;;;7.70;52.40;;;;;;5091739;28;20357;-73
2022/03/27 06:57:49;;;;;;;;;;;7.90;52.40;;;;;;5091424;28;19996;-72
2022/03/27 07:03:11;;;;;;;;;;;8.10;52.30;;;;;;5091625;28;20273;-72
2022/03/27 07:05:41;;;;;;;;;;;8.10;52.40;;;;;;5090203;28;19916;-72
2022/03/27 07:08:07;;;;;;;;;;;8.20;52.40;;;;;;5091310;28;19923;-72
2022/03/27 07:10:33;;;;;;;;;;;8.30;52.50;;;;;;5091095;28;19908;-73
2022/03/27 07:12:58;;;;;;;;;;;8.30;52.60;;;;;;5090918;28;20003;-73
2022/03/27 07:15:24;;;;;;;;;;;8.40;52.70;;;;;;5089844;28;19955;-72
2022/03/27 07:17:51;;;;;;;;;;;8.40;52.70;;;;;;5091081;28;19919;-73
2022/03/27 07:20:17;;;;;;;;;;;8.40;52.80;;;;;;5091078;28;20316;-73
2022/03/27 07:22:43;;;;;;;;;;;8.40;53.00;;;;;;5090880;28;20430;-73
2022/03/27 07:25:09;;;;;;;;;;;8.50;53.10;;;;;;5089661;28;20007;-73
2022/03/27 07:27:36;;;;;;;;;;;8.60;53.20;;;;;;5090622;28;19982;-73
2022/03/27 07:30:01;;;;;;;;;;;8.80;53.20;;;;;;5090360;28;20376;-73
2022/03/27 07:32:27;;;;;;;;;;;9.00;53.10;;;;;;5090763;28;19995;-74
2022/03/27 07:34:52;;;;;;;;;;;9.10;53.10;;;;;;5090665;28;19920;-73
2022/03/27 07:37:18;;;;;;;;;;;9.10;53.10;;;;;;5089381;28;19951;-73
2022/03/27 07:39:44;;;;;;;;;;;9.20;53.30;;;;;;5090646;28;19912;-73
2022/03/27 07:42:09;;;;;;;;;;;9.30;53.40;;;;;;5090265;28;19966;-73
2022/03/27 07:44:35;;;;;;;;;;;9.50;53.30;;;;;;5090335;28;19958;-73
2022/03/27 07:47:01;;;;;;;;;;;9.70;53.30;;;;;;5090456;28;20243;-73
2022/03/27 07:49:26;;;;;;;;;;;9.80;53.50;;;;;;5090240;28;19990;-73
2022/03/27 07:51:53;;;;;;;;;;;10.10;54.00;;;;;;5090222;28;20329;-74
2022/03/27 07:54:19;;;;;;;;;;;10.40;54.00;;;;;;5090197;28;19916;-73
2022/03/27 07:56:44;;;;;;;;;;;10.70;53.90;;;;;;5090105;28;19965;-73
2022/03/27 07:59:10;;;;;;;;;;;10.90;53.90;;;;;;5090059;28;19919;-73
2022/03/27 08:01:35;;;;;;;;;;;11.20;54.20;;;;;;5090059;28;19926;-72
2022/03/27 08:04:02;;;;;;;;;;;11.60;54.40;;;;;;5089915;28;19917;-73
2022/03/27 08:06:29;;;;;;;;;;;11.90;53.80;;;;;;5089944;28;19912;-73
2022/03/27 08:08:56;;;;;;;;;;;11.90;53.50;;;;;;5089699;28;19912;-73
2022/03/27 08:11:23;;;;;;;;;;;12.00;53.70;;;;;;5089979;28;19943;-73
2022/03/27 08:13:49;;;;;;;;;;;12.20;54.10;;;;;;5090069;28;19916;-73
2022/03/27 08:16:14;;;;;;;;;;;12.50;54.10;;;;;;5088372;28;20423;-73
2022/03/27 08:18:43;;;;;;;;;;;12.70;54.10;;;;;;5089790;28;19938;-73
2022/03/27 08:21:08;;;;;;;;;;;12.90;54.30;;;;;;5089654;28;20311;-73
2022/03/27 08:23:34;;;;;;;;;;;13.30;54.80;;;;;;5089700;28;20045;-74
2022/03/27 08:28:44;;;;;;;;;;;14.90;55.20;;;;;;5089725;28;19976;-73
2022/03/27 08:31:10;;;;;;;;;;;16.10;55.10;;;;;;5089297;28;20639;-74
2022/03/27 08:33:36;;;;;;;;;;;17.00;54.40;;;;;;5089132;28;19952;-73
2022/03/27 08:36:01;;;;;;;;;;;17.50;54.40;;;;;;5087933;28;19912;-73
2022/03/27 08:38:27;;;;;;;;;;;18.00;54.50;;;;;;5089328;28;19916;-73
2022/03/27 08:40:53;;;;;;;;;;;18.40;54.60;;;;;;5088802;28;19923;-74
2022/03/27 08:43:19;;;;;;;;;;;19.10;55.00;;;;;;5087459;28;20294;-74
2022/03/27 08:45:44;;;;;;;;;;;19.80;54.60;;;;;;5088972;28;19908;-74
2022/03/27 08:48:10;;;;;;;;;;;20.10;54.80;;;;;;5088970;28;19916;-74
2022/03/27 08:50:36;;;;;;;;;;;20.60;54.70;;;;;;5088727;28;19908;-74
2022/03/27 08:53:04;;;;;;;;;;;20.90;54.60;;;;;;5088753;28;19999;-73
2022/03/27 08:55:40;;;;;;;;;;;21.30;54.90;;;;;;5088559;28;19909;-74
2022/03/27 08:58:10;;;;;;;;;;;21.70;54.50;;;;;;5088801;28;19908;-74
2022/03/27 09:00:36;;;;;;;;;;;21.80;54.60;;;;;;5088573;28;19930;-74
2022/03/27 09:03:02;;;;;;;;;;;22.20;54.50;;;;;;5088857;28;20509;-74
2022/03/27 09:05:28;;;;;;;;;;;22.70;54.40;;;;;;5088614;28;19970;-71
2022/03/27 09:07:56;;;;;;;;;;;23.10;54.00;;;;;;5088520;28;19948;-71
2022/03/27 09:10:22;;;;;;;;;;;23.60;53.70;;;;;;5086931;28;20320;-71
2022/03/27 09:12:48;;;;;;;;;;;23.50;53.10;;;;;;5088281;28;19911;-72
2022/03/27 09:15:14;;;;;;;;;;;23.20;53.80;;;;;;5088111;28;19978;-73
2022/03/27 09:17:57;;;;;;;;;;;23.40;54.40;;;;;;5088331;28;19935;-72
2022/03/27 09:20:53;;;;;;;;;;;23.50;54.30;;;;;;5088258;28;19916;-72
2022/03/27 09:23:21;;;;;;;;;;;23.40;54.40;;;;;;5083179;28;19965;-72
2022/03/27 09:25:51;;;;;;;;;;;23.60;55.00;;;;;;5088181;28;20381;-73
2022/03/27 09:28:24;;;;;;;;;;;24.00;55.20;;;;;;5087951;28;19908;-72
2022/03/27 09:30:49;;;;;;;;;;;24.60;54.80;;;;;;5087892;28;20285;-72
2022/03/27 09:33:39;;;;;;;;;;;25.10;54.70;;;;;;5087937;28;19908;-72
2022/03/27 09:36:11;;;;;;;;;;;25.70;54.30;;;;;;5084823;28;19915;-72
2022/03/27 09:38:37;;;;;;;;;;;26.10;53.30;;;;;;5088060;28;19969;-73
2022/03/27 09:41:03;;;;;;;;;;;26.40;53.20;;;;;;5087600;28;19967;-72
2022/03/27 09:43:29;;;;;;;;;;;26.40;53.60;;;;;;5087457;28;19948;-73
2022/03/27 09:45:56;;;;;;;;;;;26.50;53.90;;;;;;5087673;28;19962;-72
2022/03/27 09:48:22;;;;;;;;;;;26.80;54.20;;;;;;5087408;28;19916;-72
2022/03/27 09:50:48;;;;;;;;;;;27.40;54.20;;;;;;5087464;28;19962;-73
2022/03/27 09:53:29;;;;;;;;;;;27.40;53.60;;;;;;5086402;28;19916;-73
2022/03/27 09:55:58;;;;;;;;;;;27.50;54.30;;;;;;5087430;28;19914;-73
2022/03/27 09:58:40;;;;;;;;;;;27.80;54.00;;;;;;5087274;28;19948;-74
2022/03/27 10:01:16;;;;;;;;;;;27.70;53.90;;;;;;5087116;28;19908;-73
2022/03/27 10:04:01;;;;;;;;;;;27.60;53.90;;;;;;5087311;28;19992;-72
2022/03/27 10:06:38;;;;;;;;;;;;;;;;;;;;;
2022/03/27 10:09:05;;;;;;;;;;;28.00;54.40;;;;;;5086121;28;19912;-73
2022/03/27 10:11:31;;;;;;;;;;;28.50;54.30;;;;;;5087039;28;19994;-73
2022/03/27 10:13:57;;;;;;;;;;;28.50;53.60;;;;;;5086061;28;20004;-73
2022/03/27 10:16:28;;;;;;;;;;;28.40;53.30;;;;;;5085983;28;20447;-72
2022/03/27 10:19:02;;;;;;;;;;;28.20;53.70;;;;;;5086852;28;19919;-72
2022/03/27 10:21:28;;;;;;;;;;;28.20;53.80;;;;;;5086798;28;19914;-72
2022/03/27 10:24:15;;;;;;;;;;;28.30;54.20;;;;;;5087224;28;19952;-73
2022/03/27 10:26:43;;;;;;;;;;;28.60;54.00;;;;;;5086610;28;20247;-73
2022/03/27 10:29:10;;;;;;;;;;;28.60;53.60;;;;;;5086634;28;19981;-73
2022/03/27 10:31:35;;;;;;;;;;;28.70;54.10;;;;;;5086814;28;20277;-72
2022/03/27 10:34:02;;;;;;;;;;;29.00;53.50;;;;;;5086434;28;19908;-73
2022/03/27 10:36:34;;;;;;;;;;;29.30;53.20;;;;;;5086744;28;20265;-73
2022/03/27 10:38:59;;;;;;;;;;;29.30;53.00;;;;;;5086419;28;19908;-73
2022/03/27 10:41:34;;;;;;;;;;;29.40;53.00;;;;;;5086537;28;20037;-73
2022/03/27 10:44:26;;;;;;;;;;;29.50;52.90;;;;;;5086673;28;19956;-73
2022/03/27 10:47:10;;;;;;;;;;;29.30;52.60;;;;;;5077787;28;20157;-73
2022/03/27 10:49:36;;;;;;;;;;;28.80;52.80;;;;;;5086337;28;19908;-73
2022/03/27 10:52:05;;;;;;;;;;;28.40;52.80;;;;;;5086456;28;19919;-73
2022/03/27 10:54:31;;;;;;;;;;;28.20;53.20;;;;;;5086514;28;19969;-74
2022/03/27 10:56:57;;;;;;;;;;;28.30;53.30;;;;;;5086607;28;20362;-72
2022/03/27 10:59:27;;;;;;;;;;;28.50;52.90;;;;;;5086795;28;19958;-74
2022/03/27 11:01:54;;;;;;;;;;;28.70;52.40;;;;;;5086248;28;19912;-74
2022/03/27 11:04:19;;;;;;;;;;;28.90;51.40;;;;;;5087552;28;19920;-73
2022/03/27 11:06:49;;;;;;;;;;;28.90;51.20;;;;;;5090504;28;19908;-73
2022/03/27 11:09:33;;;;;;;;;;;28.90;51.60;;;;;;5090142;28;19923;-72
2022/03/27 11:11:59;;;;;;;;;;;29.10;51.50;;;;;;5088889;28;19916;-73
2022/03/27 11:14:46;;;;;;;;;;;29.00;51.20;;;;;;5090344;28;20066;-74
2022/03/27 11:17:13;;;;;;;;;;;29.10;51.40;;;;;;5086717;28;20365;-74
2022/03/27 11:19:43;;;;;;;;;;;29.10;51.70;;;;;;5090455;28;19995;-74
2022/03/27 11:22:27;;;;;;;;;;;29.30;51.80;;;;;;5089104;28;20003;-74
2022/03/27 11:25:13;;;;;;;;;;;29.50;50.80;;;;;;5089681;28;19919;-74
2022/03/27 11:27:55;;;;;;;;;;;29.70;51.20;;;;;;5086039;28;20267;-74
2022/03/27 11:30:21;;;;;;;;;;;29.80;50.90;;;;;;5089997;28;19969;-74
2022/03/27 11:33:05;;;;;;;;;;;29.10;50.40;;;;;;5090390;28;19911;-73
2022/03/27 11:35:30;;;;;;;;;;;28.80;51.20;;;;;;5090264;28;20290;-74
2022/03/27 11:38:31;;;;;;;;;;;28.50;50.50;;;;;;5089788;28;19915;-73
2022/03/27 11:41:17;;;;;;;;;;;28.20;50.30;;;;;;5066742;28;19916;-74
2022/03/27 11:43:42;;;;;;;;;;;27.70;50.60;;;;;;5087193;28;19935;-74
2022/03/27 11:46:10;;;;;;;;;;;27.70;51.00;;;;;;5089453;28;19935;-73
2022/03/27 11:48:35;;;;;;;;;;;28.00;51.00;;;;;;5089525;28;19955;-74
2022/03/27 11:51:13;;;;;;;;;;;28.20;50.10;;;;;;5087842;28;19939;-74
2022/03/27 11:53:38;;;;;;;;;;;28.10;50.20;;;;;;5089524;28;19908;-73
2022/03/27 11:56:07;;;;;;;;;;;28.10;50.00;;;;;;5088324;28;19924;-73
2022/03/27 11:58:34;;;;;;;;;;;28.20;50.10;;;;;;5089184;28;19924;-74
2022/03/27 12:01:09;;;;;;;;;;;28.30;49.90;;;;;;5089246;28;19908;-74
2022/03/27 12:03:38;;;;;;;;;;;28.10;49.50;;;;;;5088863;28;19926;-73
2022/03/27 12:06:04;;;;;;;;;;;27.90;49.90;;;;;;5087413;28;19923;-74
2022/03/27 12:08:34;;;;;;;;;;;28.10;49.70;;;;;;5089052;28;19924;-73
2022/03/27 12:11:04;;;;;;;;;;;28.30;49.60;;;;;;5088999;28;19923;-73
2022/03/27 12:13:37;;;;;;;;;;;28.30;49.40;;;;;;5088503;28;19912;-74
2022/03/27 12:16:03;;;;;;;;;;;28.30;49.10;;;;;;5087190;28;19923;-74
2022/03/27 12:18:30;;;;;;;;;;;28.20;49.30;;;;;;5088509;28;19916;-74
2022/03/27 12:20:56;;;;;;;;;;;28.10;49.20;;;;;;5088317;28;19915;-74
2022/03/27 12:23:29;;;;;;;;;;;27.80;49.30;;;;;;5088450;28;19919;-74
2022/03/27 12:25:59;;;;;;;;;;;27.80;49.80;;;;;;5088652;28;19912;-73
2022/03/27 12:31:21;;;;;;;;;;;27.60;49.60;;;;;;5088706;28;19967;-74
2022/03/27 12:33:48;;;;;;;;;;;27.20;49.60;;;;;;5088383;28;20328;-73
2022/03/27 12:36:14;;;;;;;;;;;27.30;50.10;;;;;;5088360;28;19958;-72
2022/03/27 12:38:40;;;;;;;;;;;27.60;50.20;;;;;;5088551;28;19912;-73
2022/03/27 12:41:08;;;;;;;;;;;28.00;49.80;;;;;;5086784;28;19912;-73
2022/03/27 12:43:33;;;;;;;;;;;28.20;49.10;;;;;;5087493;28;19920;-72
2022/03/27 12:45:59;;;;;;;;;;;28.10;48.80;;;;;;5088346;28;20061;-73
2022/03/27 12:48:29;;;;;;;;;;;27.90;48.80;;;;;;5087987;28;19912;-74
2022/03/27 12:50:55;;;;;;;;;;;27.60;48.90;;;;;;5088016;28;19915;-73
2022/03/27 12:53:21;;;;;;;;;;;27.30;49.20;;;;;;5086712;28;20007;-74
2022/03/27 12:55:47;;;;;;;;;;;27.40;49.40;;;;;;5087831;28;19967;-73
2022/03/27 12:58:13;;;;;;;;;;;27.30;49.60;;;;;;5087830;28;20481;-73
2022/03/27 13:00:43;;;;;;;;;;;27.30;49.70;;;;;;5087976;28;19999;-73
2022/03/27 13:03:24;;;;;;;;;;;27.30;49.20;;;;;;5087758;28;19991;-73
2022/03/27 13:06:00;;;;;;;;;;;26.90;49.40;;;;;;5087931;28;19935;-73
2022/03/27 13:08:26;;;;;;;;;;;26.90;50.00;;;;;;5088033;28;19920;-74
2022/03/27 13:10:56;;;;;;;;;;;26.70;49.60;;;;;;5087845;28;19924;-73
2022/03/27 13:13:30;;;;;;;;;;;26.40;49.50;;;;;;5088063;28;19952;-73
2022/03/27 13:15:57;;;;;;;;;;;26.20;49.60;;;;;;5087443;28;19998;-74
2022/03/27 13:18:32;;;;;;;;;;;26.30;49.60;;;;;;5087697;28;19920;-73
2022/03/27 13:21:11;;;;;;;;;;;26.30;49.00;;;;;;5087607;28;19912;-74
2022/03/27 13:23:37;;;;;;;;;;;26.20;49.50;;;;;;5087866;28;19999;-73
2022/03/27 13:26:02;;;;;;;;;;;26.00;49.10;;;;;;5087470;28;20345;-73
2022/03/27 13:28:28;;;;;;;;;;;25.90;49.00;;;;;;5087337;28;19914;-73
2022/03/27 13:30:54;;;;;;;;;;;25.70;49.10;;;;;;5087616;28;19923;-74
2022/03/27 13:33:19;;;;;;;;;;;25.70;49.90;;;;;;5087989;28;19913;-74
2022/03/27 13:35:48;;;;;;;;;;;25.80;48.90;;;;;;5087625;28;19912;-73
2022/03/27 13:38:14;;;;;;;;;;;25.50;48.90;;;;;;5085878;28;19941;-73
2022/03/27 13:43:24;;;;;;;;;;;24.90;49.10;;;;;;5086702;28;19926;-73
2022/03/27 13:45:50;;;;;;;;;;;24.50;49.20;;;;;;5087422;28;19912;-72
2022/03/27 13:48:15;;;;;;;;;;;24.40;49.30;;;;;;5087258;28;20454;-73
2022/03/27 13:50:41;;;;;;;;;;;24.10;49.10;;;;;;5086410;28;19919;-74
2022/03/27 13:53:07;;;;;;;;;;;23.80;49.10;;;;;;5087107;28;19922;-74
2022/03/27 13:55:32;;;;;;;;;;;23.30;48.60;;;;;;5087266;28;20007;-73
2022/03/27 13:58:00;;;;;;;;;;;22.60;48.60;;;;;;5087054;28;19908;-73
2022/03/27 14:00:25;;;;;;;;;;;22.20;48.90;;;;;;5086607;28;19912;-73
2022/03/27 14:02:51;;;;;;;;;;;22.00;48.80;;;;;;5086858;28;19923;-74
2022/03/27 14:05:16;;;;;;;;;;;21.80;48.50;;;;;;5086720;28;19916;-73
2022/03/27 14:07:44;;;;;;;;;;;21.50;48.40;;;;;;5086813;28;19919;-73
2022/03/27 14:10:09;;;;;;;;;;;21.20;48.50;;;;;;5086304;28;19915;-73
2022/03/27 14:12:35;;;;;;;;;;;20.90;48.70;;;;;;5086614;28;20234;-73
2022/03/27 14:15:02;;;;;;;;;;;20.70;48.70;;;;;;5085207;28;20287;-73
2022/03/27 14:17:27;;;;;;;;;;;20.60;48.70;;;;;;5086319;28;19962;-73
2022/03/27 14:19:53;;;;;;;;;;;20.40;48.50;;;;;;5086380;28;19912;-73
2022/03/27 14:22:18;;;;;;;;;;;20.10;48.70;;;;;;5086433;28;20031;-73
2022/03/27 14:24:48;;;;;;;;;;;19.80;48.90;;;;;;5086729;28;20377;-73
2022/03/27 14:27:14;;;;;;;;;;;19.50;49.10;;;;;;5085363;28;19999;-73
2022/03/27 14:29:40;;;;;;;;;;;19.30;49.20;;;;;;5086861;28;20003;-73
2022/03/27 14:32:06;;;;;;;;;;;19.20;49.40;;;;;;5086514;28;19951;-71
2022/03/27 14:34:31;;;;;;;;;;;19.10;50.00;;;;;;5086362;28;19916;-73
2022/03/27 14:36:57;;;;;;;;;;;18.90;50.00;;;;;;5086144;28;20048;-73
2022/03/27 14:39:22;;;;;;;;;;;18.80;49.80;;;;;;5085994;28;20335;-73